createdAt,value
2022-10-14T00:01:12.903Z,10.61
2022-10-14T00:03:41.801Z,10.71
2022-10-14T00:06:12.542Z,10.67
2022-10-14T00:08:41.365Z,10.57
2022-10-14T00:11:13.760Z,10.43
2022-10-14T00:13:41.939Z,10.48
2022-10-14T00:16:17.610Z,10.38
2022-10-14T00:18:45.812Z,10.28
2022-10-14T00:21:13.887Z,10.25
2022-10-14T00:23:42.298Z,10.22
2022-10-14T00:26:19.088Z,10.19
2022-10-14T00:28:47.695Z,10.14
2022-10-14T00:31:16.641Z,10.13
2022-10-14T00:33:44.884Z,10.13
2022-10-14T00:36:15.060Z,10.17
2022-10-14T00:38:43.549Z,10.15
2022-10-14T00:41:14.122Z,10.01
2022-10-14T00:44:29.989Z,10.02
2022-10-14T00:46:58.308Z,9.96
2022-10-14T00:49:29.176Z,9.83
2022-10-14T00:52:02.026Z,9.83
2022-10-14T00:54:34.117Z,9.82
2022-10-14T00:57:03.709Z,9.77
2022-10-14T00:59:34.455Z,9.79
2022-10-14T01:02:02.593Z,9.73
2022-10-14T01:04:30.993Z,9.77
2022-10-14T01:07:08.477Z,9.81
2022-10-14T01:09:43.109Z,9.78
2022-10-14T01:12:28.651Z,9.71
2022-10-14T01:15:09.291Z,9.68
2022-10-14T01:17:48.570Z,9.68
2022-10-14T01:20:37.039Z,9.59
2022-10-14T01:23:21.443Z,9.73
2022-10-14T01:25:58.993Z,9.83
2022-10-14T01:28:38.393Z,9.83
2022-10-14T01:31:12.185Z,9.78
2022-10-14T01:33:44.147Z,9.85
2022-10-14T01:36:19.254Z,9.84
2022-10-14T01:38:52.407Z,9.84
2022-10-14T01:41:24.897Z,9.82
2022-10-14T01:43:55.378Z,9.76
2022-10-14T01:46:28.007Z,9.73
2022-10-14T01:49:01.387Z,9.67
2022-10-14T01:51:35.038Z,9.54
2022-10-14T01:54:07.874Z,9.56
2022-10-14T01:56:40.519Z,9.53
2022-10-14T01:59:11.914Z,9.53
2022-10-14T02:01:41.794Z,9.49
2022-10-14T02:04:16.400Z,9.49
2022-10-14T02:06:49.597Z,9.51
2022-10-14T02:09:24.663Z,9.50
2022-10-14T02:12:05.710Z,9.45
2022-10-14T02:14:41.203Z,9.46
2022-10-14T02:17:18.819Z,9.43
2022-10-14T02:19:51.710Z,9.45
2022-10-14T02:22:27.328Z,9.41
2022-10-14T02:24:58.871Z,9.31
2022-10-14T02:27:29.643Z,9.37
2022-10-14T02:30:00.494Z,9.31
2022-10-14T02:32:30.996Z,9.25
2022-10-14T02:35:00.313Z,9.26
2022-10-14T02:37:31.071Z,9.18
2022-10-14T02:40:01.720Z,9.20
2022-10-14T02:42:30.013Z,9.16
2022-10-14T02:45:00.612Z,9.12
2022-10-14T02:47:30.335Z,9.12
2022-10-14T02:49:58.730Z,9.08
2022-10-14T02:52:26.927Z,9.01
2022-10-14T02:54:55.065Z,9.00
2022-10-14T02:57:23.204Z,8.96
2022-10-14T02:59:51.706Z,8.88
2022-10-14T03:02:19.976Z,8.93
2022-10-14T03:04:49.705Z,8.88
2022-10-14T03:07:17.872Z,8.91
2022-10-14T03:09:46.262Z,8.95
2022-10-14T03:12:14.306Z,8.93
2022-10-14T03:14:42.343Z,8.84
2022-10-14T03:17:10.492Z,8.90
2022-10-14T03:19:38.840Z,8.99
2022-10-14T03:22:08.818Z,9.00
2022-10-14T03:24:36.796Z,9.04
2022-10-14T03:27:04.825Z,9.06
2022-10-14T03:29:32.900Z,9.06
2022-10-14T03:32:01.003Z,9.07
2022-10-14T03:34:29.033Z,9.07
2022-10-14T03:36:57.224Z,9.04
2022-10-14T03:39:26.970Z,8.95
2022-10-14T03:41:55.076Z,8.91
2022-10-14T03:44:23.422Z,9.02
2022-10-14T03:46:51.809Z,9.10
2022-10-14T03:49:19.936Z,9.28
2022-10-14T03:51:48.140Z,9.26
2022-10-14T03:54:16.118Z,9.39
2022-10-14T03:56:45.422Z,9.41
2022-10-14T03:59:13.522Z,9.53
2022-10-14T04:01:41.560Z,9.76
2022-10-14T04:04:09.600Z,9.83
2022-10-14T04:06:37.985Z,9.89
2022-10-14T04:09:06.067Z,10.01
2022-10-14T04:11:34.178Z,10.13
2022-10-14T04:14:03.738Z,10.22
2022-10-14T04:16:32.054Z,10.22
2022-10-14T04:19:00.542Z,10.22
2022-10-14T04:21:28.621Z,10.17
2022-10-14T04:23:56.681Z,10.27
2022-10-14T04:26:24.858Z,10.38
2022-10-14T04:28:52.908Z,10.39
2022-10-14T04:31:23.165Z,10.29
2022-10-14T04:33:51.716Z,10.37
2022-10-14T04:36:19.824Z,10.40
2022-10-14T04:38:47.949Z,10.37
2022-10-14T04:41:16.020Z,10.37
2022-10-14T04:43:44.013Z,10.42
2022-10-14T04:46:12.103Z,10.36
2022-10-14T04:48:41.811Z,10.41
2022-10-14T04:51:09.747Z,10.39
2022-10-14T04:53:37.687Z,10.42
2022-10-14T04:56:06.081Z,10.37
2022-10-14T04:58:34.295Z,10.35
2022-10-14T05:01:02.212Z,10.37
2022-10-14T05:03:30.131Z,10.37
2022-10-14T05:06:00.175Z,10.27
2022-10-14T05:08:28.128Z,10.29
2022-10-14T05:10:56.181Z,10.32
2022-10-14T05:13:24.180Z,10.35
2022-10-14T05:15:52.585Z,10.46
2022-10-14T05:18:20.581Z,10.52
2022-10-14T05:20:48.640Z,10.54
2022-10-14T05:23:17.967Z,10.62
2022-10-14T05:25:45.894Z,10.67
2022-10-14T05:28:13.882Z,10.78
2022-10-14T05:30:42.854Z,10.84
2022-10-14T05:33:11.557Z,11.01
2022-10-14T05:35:57.985Z,11.27
2022-10-14T05:38:28.912Z,11.38
2022-10-14T05:40:58.474Z,11.54
2022-10-14T05:43:32.028Z,11.77
2022-10-14T05:46:00.375Z,11.97
2022-10-14T05:48:28.441Z,12.16
2022-10-14T05:50:56.514Z,12.34
2022-10-14T05:53:24.668Z,12.35
2022-10-14T05:55:54.128Z,12.29
2022-10-14T05:58:22.056Z,12.38
2022-10-14T06:00:50.081Z,12.57
2022-10-14T06:03:18.088Z,12.67
2022-10-14T06:05:47.183Z,12.57
2022-10-14T06:08:16.000Z,12.78
2022-10-14T06:10:44.065Z,12.94
2022-10-14T06:13:13.568Z,13.01
2022-10-14T06:15:42.052Z,13.20
2022-10-14T06:18:10.580Z,13.23
2022-10-14T06:20:38.564Z,13.32
2022-10-14T06:23:06.723Z,13.32
2022-10-14T06:25:35.046Z,13.30
2022-10-14T06:28:04.606Z,13.47
2022-10-14T06:30:34.296Z,13.40
2022-10-14T06:33:02.292Z,13.48
2022-10-14T06:35:30.356Z,13.57
2022-10-14T06:37:58.752Z,13.82
2022-10-14T06:40:26.780Z,13.74
2022-10-14T06:42:54.837Z,13.77
2022-10-14T06:45:22.781Z,13.73
2022-10-14T06:47:52.370Z,14.10
2022-10-14T06:50:20.396Z,14.24
2022-10-14T06:52:49.065Z,14.48
2022-10-14T06:55:17.959Z,14.39
2022-10-14T06:57:45.962Z,14.35
2022-10-14T07:00:14.641Z,14.44
2022-10-14T07:02:42.972Z,14.52
2022-10-14T07:05:14.052Z,14.70
2022-10-14T07:07:42.058Z,14.47
2022-10-14T07:10:10.848Z,14.13
2022-10-14T07:12:38.853Z,14.38
2022-10-14T07:15:07.872Z,14.52
2022-10-14T07:17:35.998Z,14.56
2022-10-14T07:20:04.130Z,14.64
2022-10-14T07:22:38.820Z,14.92
2022-10-14T07:25:08.570Z,14.88
2022-10-14T07:27:36.657Z,14.98
2022-10-14T07:30:05.637Z,15.12
2022-10-14T07:32:36.991Z,15.21
2022-10-14T07:35:05.914Z,15.48
2022-10-14T07:37:35.376Z,15.64
2022-10-14T07:40:03.365Z,15.76
2022-10-14T07:42:31.563Z,15.75
2022-10-14T07:44:59.873Z,15.79
2022-10-14T07:47:27.855Z,15.95
2022-10-14T07:49:55.884Z,15.94
2022-10-14T07:52:24.298Z,15.71
2022-10-14T07:54:53.820Z,15.71
2022-10-14T07:57:23.811Z,15.91
2022-10-14T07:59:53.176Z,16.01
2022-10-14T08:02:21.633Z,15.53
2022-10-14T08:05:04.142Z,15.54
2022-10-14T08:07:36.413Z,15.83
2022-10-14T08:10:06.537Z,16.07
2022-10-14T08:12:34.557Z,16.30
2022-10-14T08:15:02.695Z,16.28
2022-10-14T08:17:30.758Z,16.12
2022-10-14T08:19:59.712Z,16.63
2022-10-14T08:22:27.984Z,16.94
2022-10-14T08:24:55.926Z,16.86
2022-10-14T08:27:26.955Z,16.94
2022-10-14T08:29:56.095Z,17.13
2022-10-14T08:32:24.915Z,17.33
2022-10-14T08:34:53.293Z,17.37
2022-10-14T08:37:21.391Z,17.29
2022-10-14T08:39:49.686Z,17.45
2022-10-14T08:42:33.144Z,17.25
2022-10-14T08:45:08.967Z,17.69
2022-10-14T08:47:40.578Z,17.63
2022-10-14T08:50:23.380Z,17.62
2022-10-14T08:52:57.070Z,17.80
2022-10-14T08:55:32.408Z,17.96
2022-10-14T08:58:10.383Z,17.71
2022-10-14T09:00:41.614Z,17.64
2022-10-14T09:03:17.933Z,17.86
2022-10-14T09:05:46.080Z,17.99
2022-10-14T09:08:18.742Z,18.05
2022-10-14T09:10:47.369Z,17.95
2022-10-14T09:13:20.621Z,17.97
2022-10-14T09:15:55.710Z,18.22
2022-10-14T09:18:29.837Z,18.33
2022-10-14T09:20:59.940Z,18.33
2022-10-14T09:23:29.603Z,18.40
2022-10-14T09:25:59.996Z,17.82
2022-10-14T09:28:38.638Z,18.04
2022-10-14T09:31:09.569Z,18.03
2022-10-14T09:33:42.291Z,17.88
2022-10-14T09:36:17.321Z,17.81
2022-10-14T09:38:46.180Z,18.09
2022-10-14T09:41:17.242Z,18.32
2022-10-14T09:44:22.993Z,18.19
2022-10-14T09:46:54.328Z,18.20
2022-10-14T09:49:34.112Z,18.24
2022-10-14T09:52:03.443Z,18.42
2022-10-14T09:54:32.969Z,18.54
2022-10-14T09:57:08.974Z,18.27
2022-10-14T09:59:51.834Z,18.19
2022-10-14T10:02:24.431Z,17.98
2022-10-14T10:04:54.949Z,18.11
2022-10-14T10:07:33.487Z,18.03
2022-10-14T10:10:05.257Z,18.11
2022-10-14T10:12:35.272Z,17.80
2022-10-14T10:15:07.650Z,17.65
2022-10-14T10:17:36.964Z,17.73
2022-10-14T10:20:18.016Z,17.85
2022-10-14T10:22:46.215Z,17.88
2022-10-14T10:25:21.128Z,17.93
2022-10-14T10:27:51.110Z,18.05
2022-10-14T10:30:27.659Z,18.17
2022-10-14T10:33:17.583Z,18.53
2022-10-14T10:36:11.018Z,18.72
2022-10-14T10:38:46.870Z,18.53
2022-10-14T10:41:28.379Z,18.44
2022-10-14T10:44:18.789Z,18.34
2022-10-14T10:47:13.045Z,18.23
2022-10-14T10:50:02.210Z,18.35
2022-10-14T10:52:42.879Z,18.46
2022-10-14T10:55:18.902Z,18.59
2022-10-14T10:58:02.592Z,18.46
2022-10-14T11:00:42.698Z,18.62
2022-10-14T11:03:32.537Z,18.75
2022-10-14T11:06:05.247Z,18.88
2022-10-14T11:09:02.693Z,19.02
2022-10-14T11:11:51.456Z,19.08
2022-10-14T11:14:48.348Z,19.07
2022-10-14T11:17:25.480Z,19.22
2022-10-14T11:20:04.464Z,19.07
2022-10-14T11:22:53.391Z,18.81
2022-10-14T11:25:34.640Z,18.67
2022-10-14T11:28:12.464Z,18.29
2022-10-14T11:30:47.589Z,18.39
2022-10-14T11:33:34.849Z,18.61
2022-10-14T11:36:19.054Z,18.74
2022-10-14T11:39:10.183Z,18.88
2022-10-14T11:41:54.135Z,18.93
2022-10-14T11:44:30.854Z,19.07
2022-10-14T11:47:04.782Z,18.97
2022-10-14T11:49:38.500Z,19.02
2022-10-14T11:52:12.951Z,18.89
2022-10-14T11:54:45.423Z,18.63
2022-10-14T11:57:22.902Z,18.68
2022-10-14T12:00:11.042Z,18.74
2022-10-14T12:02:45.985Z,18.81
2022-10-14T12:05:22.095Z,18.86
2022-10-14T12:08:06.376Z,19.09
2022-10-14T12:10:38.710Z,19.04
2022-10-14T12:13:12.023Z,19.10
2022-10-14T12:15:45.011Z,19.06
2022-10-14T12:18:14.010Z,18.88
2022-10-14T12:20:49.181Z,18.90
2022-10-14T12:23:31.259Z,18.76
2022-10-14T12:26:06.156Z,18.81
2022-10-14T12:28:37.779Z,18.74
2022-10-14T12:31:21.751Z,18.65
2022-10-14T12:34:19.029Z,18.80
2022-10-14T12:36:50.861Z,18.57
2022-10-14T12:39:43.733Z,18.69
2022-10-14T12:42:14.541Z,18.60
2022-10-14T12:44:48.314Z,18.52
2022-10-14T12:47:21.410Z,18.63
2022-10-14T12:49:53.712Z,18.78
2022-10-14T12:52:27.267Z,18.74
2022-10-14T12:54:57.656Z,18.63
2022-10-14T12:57:31.097Z,18.64
2022-10-14T13:00:01.954Z,18.64
2022-10-14T13:02:34.064Z,18.48
2022-10-14T13:05:05.641Z,18.39
2022-10-14T13:07:44.680Z,18.44
2022-10-14T13:11:10.675Z,18.39
2022-10-14T13:14:22.217Z,18.51
2022-10-14T13:17:00.771Z,18.62
2022-10-14T13:19:47.930Z,18.46
2022-10-14T13:22:39.870Z,18.29
2022-10-14T13:25:29.027Z,18.31
2022-10-14T13:28:05.956Z,18.11
2022-10-14T13:30:38.561Z,18.18
2022-10-14T13:33:17.211Z,17.91
2022-10-14T13:35:54.269Z,17.81
2022-10-14T13:38:25.044Z,17.46
2022-10-14T13:40:56.090Z,17.58
2022-10-14T13:43:30.645Z,17.62
2022-10-14T13:46:05.353Z,17.83
2022-10-14T13:48:36.335Z,17.97
2022-10-14T13:51:44.805Z,17.75
2022-10-14T13:54:18.737Z,17.50
2022-10-14T13:57:34.998Z,17.62
2022-10-14T14:02:40.174Z,17.29
2022-10-14T14:05:16.207Z,17.47
2022-10-14T14:10:39.238Z,17.42
2022-10-14T14:13:15.424Z,17.70
2022-10-14T14:15:51.431Z,17.49
2022-10-14T14:18:33.998Z,17.42
2022-10-14T14:21:14.496Z,17.31
2022-10-14T14:23:51.094Z,17.27
2022-10-14T14:26:19.885Z,17.22
2022-10-14T14:28:49.848Z,17.11
2022-10-14T14:31:48.034Z,17.19
2022-10-14T14:34:19.598Z,17.44
2022-10-14T14:36:57.936Z,17.04
2022-10-14T14:39:33.985Z,17.15
2022-10-14T14:42:02.709Z,17.17
2022-10-14T14:44:34.873Z,17.25
2022-10-14T14:47:05.710Z,17.20
2022-10-14T14:49:36.624Z,17.17
2022-10-14T14:52:05.554Z,17.00
2022-10-14T14:54:33.674Z,16.57
2022-10-14T14:57:05.761Z,16.57
2022-10-14T14:59:37.180Z,16.53
2022-10-14T15:02:16.590Z,16.24
2022-10-14T15:04:45.184Z,16.23
2022-10-14T15:07:21.366Z,16.19
2022-10-14T15:09:53.072Z,16.08
2022-10-14T15:12:25.527Z,16.13
2022-10-14T15:14:55.362Z,16.07
2022-10-14T15:17:34.624Z,15.98
2022-10-14T15:20:30.106Z,15.90
2022-10-14T15:22:58.629Z,15.71
2022-10-14T15:25:30.686Z,15.70
2022-10-14T15:27:59.637Z,15.78
2022-10-14T15:30:35.157Z,15.67
2022-10-14T15:33:14.033Z,15.66
2022-10-14T15:35:42.643Z,15.51
2022-10-14T15:38:16.362Z,15.48
2022-10-14T15:40:45.097Z,15.21
2022-10-14T15:43:17.501Z,15.15
2022-10-14T15:46:08.714Z,14.90
2022-10-14T15:48:38.734Z,14.83
2022-10-14T15:51:07.239Z,15.02
2022-10-14T15:53:35.801Z,14.87
2022-10-14T15:56:04.861Z,14.92
2022-10-14T15:58:33.823Z,14.74
2022-10-14T16:01:02.898Z,14.90
2022-10-14T16:03:34.770Z,14.78
2022-10-14T16:06:07.837Z,14.96
2022-10-14T16:08:36.072Z,14.61
2022-10-14T16:11:04.675Z,14.87
2022-10-14T16:13:32.705Z,14.80
2022-10-14T16:16:03.111Z,14.82
2022-10-14T16:18:31.362Z,14.75
2022-10-14T16:20:59.984Z,14.81
2022-10-14T16:23:33.353Z,14.92
2022-10-14T16:26:02.113Z,14.95
2022-10-14T16:28:30.519Z,15.01
2022-10-14T16:31:00.563Z,15.06
2022-10-14T16:33:28.689Z,15.14
2022-10-14T16:36:00.487Z,14.95
2022-10-14T16:38:29.994Z,14.89
2022-10-14T16:40:59.607Z,14.84
2022-10-14T16:43:28.732Z,14.96
2022-10-14T16:45:59.574Z,14.97
2022-10-14T16:48:28.290Z,15.03
2022-10-14T16:50:56.502Z,14.86
2022-10-14T16:53:45.169Z,14.97
2022-10-14T16:56:34.313Z,15.11
2022-10-14T16:59:02.961Z,14.96
2022-10-14T17:01:32.007Z,14.77
2022-10-14T17:04:00.397Z,14.85
2022-10-14T17:06:29.404Z,14.75
2022-10-14T17:08:57.789Z,14.30
2022-10-14T17:11:29.361Z,14.42
2022-10-14T17:13:58.798Z,14.40
2022-10-14T17:16:28.664Z,14.58
2022-10-14T17:18:57.135Z,14.60
2022-10-14T17:21:28.128Z,14.65
2022-10-14T17:23:56.838Z,14.72
2022-10-14T17:26:27.786Z,14.81
2022-10-14T17:28:56.094Z,14.79
2022-10-14T17:31:24.678Z,14.76
2022-10-14T17:33:52.910Z,14.62
2022-10-14T17:36:23.345Z,14.74
2022-10-14T17:38:52.904Z,14.89
2022-10-14T17:41:21.031Z,14.88
2022-10-14T17:43:52.156Z,14.76
2022-10-14T17:46:23.693Z,14.83
2022-10-14T17:48:53.717Z,14.94
2022-10-14T17:51:23.680Z,14.60
2022-10-14T17:53:54.437Z,14.48
2022-10-14T17:56:22.903Z,14.67
2022-10-14T17:58:55.106Z,14.74
2022-10-14T18:01:37.070Z,14.69
2022-10-14T18:04:06.963Z,14.60
2022-10-14T18:06:36.410Z,14.62
2022-10-14T18:09:06.618Z,14.73
2022-10-14T18:12:03.925Z,14.71
2022-10-14T18:14:30.956Z,14.44
2022-10-14T18:16:59.556Z,14.47
2022-10-14T18:19:28.302Z,14.42
2022-10-14T18:21:56.405Z,14.56
2022-10-14T18:24:24.899Z,14.60
2022-10-14T18:26:53.817Z,14.64
2022-10-14T18:29:22.133Z,14.35
2022-10-14T18:34:25.609Z,14.36
2022-10-14T18:36:53.830Z,14.45
2022-10-14T18:39:22.092Z,14.29
2022-10-14T18:41:50.557Z,14.05
2022-10-14T18:44:18.889Z,14.20
2022-10-14T18:46:48.078Z,14.17
2022-10-14T18:49:17.560Z,14.24
2022-10-14T18:51:46.725Z,14.15
2022-10-14T18:54:16.681Z,14.22
2022-10-14T18:56:45.996Z,14.27
2022-10-14T18:59:16.069Z,14.22
2022-10-14T19:01:46.119Z,14.21
2022-10-14T19:04:16.124Z,14.02
2022-10-14T19:06:47.229Z,13.88
2022-10-14T19:09:15.866Z,13.86
2022-10-14T19:11:44.822Z,13.52
2022-10-14T19:14:14.672Z,13.40
2022-10-14T19:16:43.047Z,13.81
2022-10-14T19:19:16.891Z,13.82
2022-10-14T19:21:47.647Z,13.86
2022-10-14T19:24:15.943Z,13.86
2022-10-14T19:26:46.867Z,13.83
2022-10-14T19:29:16.653Z,13.81
2022-10-14T19:31:45.476Z,13.64
2022-10-14T19:34:15.382Z,13.50
2022-10-14T19:36:45.449Z,13.54
2022-10-14T19:39:19.109Z,13.47
2022-10-14T19:41:47.699Z,13.37
2022-10-14T19:44:17.302Z,13.38
2022-10-14T19:46:46.552Z,13.38
2022-10-14T19:49:16.447Z,13.36
2022-10-14T19:51:45.291Z,13.43
2022-10-14T19:54:15.290Z,13.17
2022-10-14T19:56:43.903Z,12.93
2022-10-14T19:59:13.658Z,13.01
2022-10-14T20:01:41.929Z,12.84
2022-10-14T20:04:10.103Z,12.69
2022-10-14T20:06:40.192Z,12.90
2022-10-14T20:09:09.588Z,12.95
2022-10-14T20:11:39.146Z,12.90
2022-10-14T20:14:07.162Z,12.91
2022-10-14T20:16:35.469Z,12.79
2022-10-14T20:19:03.585Z,12.82
2022-10-14T20:21:31.959Z,12.79
2022-10-14T20:24:00.683Z,12.91
2022-10-14T20:26:29.059Z,12.91
2022-10-14T20:28:58.740Z,12.72
2022-10-14T20:31:27.347Z,12.73
2022-10-14T20:33:57.179Z,12.80
2022-10-14T20:36:25.429Z,12.92
2022-10-14T20:38:53.493Z,12.94
2022-10-14T20:41:23.341Z,12.89
2022-10-14T20:43:52.386Z,12.66
2022-10-14T20:46:23.446Z,12.61
2022-10-14T20:48:55.414Z,12.55
2022-10-14T20:51:25.002Z,12.36
2022-10-14T20:54:01.637Z,12.08
2022-10-14T20:56:33.811Z,12.01
2022-10-14T20:59:04.145Z,12.02
2022-10-14T21:01:35.094Z,12.08
2022-10-14T21:04:04.425Z,12.12
2022-10-14T21:06:32.786Z,12.09
2022-10-14T21:09:01.727Z,12.03
2022-10-14T21:11:30.288Z,11.92
2022-10-14T21:13:59.919Z,11.85
2022-10-14T21:16:30.609Z,11.89
2022-10-14T21:19:02.863Z,11.65
2022-10-14T21:21:34.677Z,11.73
2022-10-14T21:24:02.890Z,11.64
2022-10-14T21:26:31.494Z,11.62
2022-10-14T21:29:01.370Z,11.75
2022-10-14T21:31:29.659Z,11.78
2022-10-14T21:34:05.383Z,11.79
2022-10-14T21:36:34.693Z,11.78
2022-10-14T21:39:06.821Z,11.72
2022-10-14T21:41:36.047Z,11.71
2022-10-14T21:44:04.438Z,11.72
2022-10-14T21:46:33.665Z,11.73
2022-10-14T21:49:03.461Z,11.70
2022-10-14T21:51:32.717Z,11.67
2022-10-14T21:54:00.757Z,11.63
2022-10-14T21:56:29.068Z,11.58
2022-10-14T21:58:57.519Z,11.60
2022-10-14T22:01:27.647Z,11.53
2022-10-14T22:03:56.830Z,11.50
2022-10-14T22:06:26.884Z,11.40
2022-10-14T22:08:56.658Z,11.29
2022-10-14T22:11:27.412Z,11.26
2022-10-14T22:13:56.808Z,11.24
2022-10-14T22:16:25.483Z,11.21
2022-10-14T22:18:54.730Z,11.16
2022-10-14T22:21:27.794Z,11.11
2022-10-14T22:23:55.952Z,11.05
2022-10-14T22:26:25.977Z,10.91
2022-10-14T22:28:59.662Z,10.93
2022-10-14T22:31:28.529Z,10.85
2022-10-14T22:33:57.137Z,10.68
2022-10-14T22:36:29.137Z,10.57
2022-10-14T22:38:58.622Z,10.54
2022-10-14T22:41:32.360Z,10.52
2022-10-14T22:44:03.868Z,10.52
2022-10-14T22:46:33.607Z,10.49
2022-10-14T22:49:02.193Z,10.48
2022-10-14T22:51:34.102Z,10.41
2022-10-14T22:54:02.489Z,10.37
2022-10-14T22:56:32.520Z,10.27
2022-10-14T22:59:02.668Z,10.12
2022-10-14T23:01:31.561Z,10.07
2022-10-14T23:04:00.892Z,9.94
2022-10-14T23:06:30.250Z,9.83
2022-10-14T23:09:01.517Z,9.86
2022-10-14T23:11:31.770Z,9.83
2022-10-14T23:14:02.827Z,9.80
2022-10-14T23:16:34.621Z,9.75
2022-10-14T23:19:02.703Z,9.80
2022-10-14T23:21:32.694Z,9.82
2022-10-14T23:24:04.132Z,9.84
2022-10-14T23:26:33.364Z,9.84
2022-10-14T23:29:03.196Z,9.80
2022-10-14T23:31:33.160Z,9.73
2022-10-14T23:34:02.865Z,9.63
2022-10-14T23:36:31.399Z,9.58
2022-10-14T23:39:01.717Z,9.56
2022-10-14T23:41:29.875Z,9.54
2022-10-14T23:43:58.058Z,9.51
2022-10-14T23:46:26.071Z,9.36
2022-10-14T23:49:07.046Z,9.47
2022-10-14T23:51:36.341Z,9.43
2022-10-14T23:54:05.930Z,9.40
2022-10-14T23:56:34.026Z,9.40
2022-10-14T23:59:02.133Z,9.37
